sensor_id;sensor_type;location;lat;lon;timestamp;pressure;altitude;pressure_sealevel;temperature;humidity
9855;BME280;4966;48.112;9.282;2023-07-22T00:00:48;94767.25;;;15.07;78.37
9855;BME280;4966;48.112;9.282;2023-07-22T00:03:13;94765.16;;;15.01;78.85
9855;BME280;4966;48.112;9.282;2023-07-22T00:05:42;94752.16;;;14.94;79.07
9855;BME280;4966;48.112;9.282;2023-07-22T00:08:07;94760.50;;;15.01;78.77
9855;BME280;4966;48.112;9.282;2023-07-22T00:10:33;94755.75;;;15.21;77.78
9855;BME280;4966;48.112;9.282;2023-07-22T00:12:58;94757.81;;;15.28;76.88
9855;BME280;4966;48.112;9.282;2023-07-22T00:15:23;94754.66;;;15.26;76.93
9855;BME280;4966;48.112;9.282;2023-07-22T00:17:50;94751.34;;;15.17;76.87
9855;BME280;4966;48.112;9.282;2023-07-22T00:20:16;94753.25;;;15.13;77.23
9855;BME280;4966;48.112;9.282;2023-07-22T00:22:42;94751.66;;;15.12;77.37
9855;BME280;4966;48.112;9.282;2023-07-22T00:25:10;94755.84;;;15.05;77.95
9855;BME280;4966;48.112;9.282;2023-07-22T00:27:37;94751.94;;;14.83;78.65
9855;BME280;4966;48.112;9.282;2023-07-22T00:30:05;94744.06;;;14.82;79.14
9855;BME280;4966;48.112;9.282;2023-07-22T00:32:30;94740.69;;;14.88;79.03
9855;BME280;4966;48.112;9.282;2023-07-22T00:34:55;94744.25;;;14.70;79.43
9855;BME280;4966;48.112;9.282;2023-07-22T00:37:21;94735.47;;;14.60;80.22
9855;BME280;4966;48.112;9.282;2023-07-22T00:39:46;94734.28;;;14.81;79.47
9855;BME280;4966;48.112;9.282;2023-07-22T00:42:11;94734.06;;;14.89;78.87
9855;BME280;4966;48.112;9.282;2023-07-22T00:44:37;94728.59;;;14.89;78.85
9855;BME280;4966;48.112;9.282;2023-07-22T00:47:03;94730.28;;;14.98;78.47
9855;BME280;4966;48.112;9.282;2023-07-22T00:49:29;94727.44;;;14.91;78.34
9855;BME280;4966;48.112;9.282;2023-07-22T00:51:59;94732.84;;;14.87;79.07
9855;BME280;4966;48.112;9.282;2023-07-22T00:54:26;94725.38;;;15.07;78.31
9855;BME280;4966;48.112;9.282;2023-07-22T00:56:52;94723.28;;;15.00;79.13
9855;BME280;4966;48.112;9.282;2023-07-22T00:59:19;94723.84;;;15.09;78.19
9855;BME280;4966;48.112;9.282;2023-07-22T01:01:46;94722.97;;;15.05;78.18
9855;BME280;4966;48.112;9.282;2023-07-22T01:04:14;94721.63;;;14.96;78.39
9855;BME280;4966;48.112;9.282;2023-07-22T01:06:42;94713.84;;;14.98;78.71
9855;BME280;4966;48.112;9.282;2023-07-22T01:09:09;94713.53;;;15.03;78.15
9855;BME280;4966;48.112;9.282;2023-07-22T01:11:34;94718.25;;;15.02;78.15
9855;BME280;4966;48.112;9.282;2023-07-22T01:14:00;94724.19;;;15.08;78.33
9855;BME280;4966;48.112;9.282;2023-07-22T01:16:27;94718.59;;;15.01;78.75
9855;BME280;4966;48.112;9.282;2023-07-22T01:18:53;94716.72;;;15.05;78.00
9855;BME280;4966;48.112;9.282;2023-07-22T01:21:19;94717.34;;;14.95;78.95
9855;BME280;4966;48.112;9.282;2023-07-22T01:23:47;94711.13;;;14.98;78.62
9855;BME280;4966;48.112;9.282;2023-07-22T01:26:12;94704.72;;;14.90;79.55
9855;BME280;4966;48.112;9.282;2023-07-22T01:28:38;94706.72;;;14.93;79.44
9855;BME280;4966;48.112;9.282;2023-07-22T01:31:03;94708.34;;;14.75;79.99
9855;BME280;4966;48.112;9.282;2023-07-22T01:33:30;94710.56;;;14.65;79.73
9855;BME280;4966;48.112;9.282;2023-07-22T01:35:56;94709.69;;;14.61;79.78
9855;BME280;4966;48.112;9.282;2023-07-22T01:38:21;94702.75;;;14.67;79.01
9855;BME280;4966;48.112;9.282;2023-07-22T01:40:46;94707.09;;;14.49;79.88
9855;BME280;4966;48.112;9.282;2023-07-22T01:43:13;94700.91;;;14.33;80.42
9855;BME280;4966;48.112;9.282;2023-07-22T01:45:38;94703.13;;;14.46;79.70
9855;BME280;4966;48.112;9.282;2023-07-22T01:48:05;94706.22;;;14.45;79.53
9855;BME280;4966;48.112;9.282;2023-07-22T01:50:31;94700.31;;;14.43;80.12
9855;BME280;4966;48.112;9.282;2023-07-22T01:52:56;94701.03;;;14.40;80.13
9855;BME280;4966;48.112;9.282;2023-07-22T01:55:21;94706.81;;;14.35;79.92
9855;BME280;4966;48.112;9.282;2023-07-22T01:57:47;94709.41;;;14.28;79.90
9855;BME280;4966;48.112;9.282;2023-07-22T02:00:13;94713.50;;;14.18;79.91
9855;BME280;4966;48.112;9.282;2023-07-22T02:02:41;94714.88;;;14.08;79.87
9855;BME280;4966;48.112;9.282;2023-07-22T02:05:07;94718.13;;;14.14;79.62
9855;BME280;4966;48.112;9.282;2023-07-22T02:07:33;94717.47;;;14.20;78.65
9855;BME280;4966;48.112;9.282;2023-07-22T02:09:58;94717.63;;;14.08;78.75
9855;BME280;4966;48.112;9.282;2023-07-22T02:12:24;94714.97;;;13.76;80.13
9855;BME280;4966;48.112;9.282;2023-07-22T02:14:49;94727.22;;;13.82;80.31
9855;BME280;4966;48.112;9.282;2023-07-22T02:17:14;94719.03;;;13.82;80.08
9855;BME280;4966;48.112;9.282;2023-07-22T02:19:40;94721.50;;;13.72;80.45
9855;BME280;4966;48.112;9.282;2023-07-22T02:22:05;94716.31;;;13.67;81.26
9855;BME280;4966;48.112;9.282;2023-07-22T02:24:31;94723.69;;;13.82;80.45
9855;BME280;4966;48.112;9.282;2023-07-22T02:26:56;94728.56;;;13.73;80.44
9855;BME280;4966;48.112;9.282;2023-07-22T02:29:22;94721.66;;;13.79;80.24
9855;BME280;4966;48.112;9.282;2023-07-22T02:31:47;94721.78;;;13.67;80.30
9855;BME280;4966;48.112;9.282;2023-07-22T02:34:12;94724.19;;;13.52;81.11
9855;BME280;4966;48.112;9.282;2023-07-22T02:36:38;94722.00;;;13.58;81.45
9855;BME280;4966;48.112;9.282;2023-07-22T02:39:03;94732.56;;;13.59;81.95
9855;BME280;4966;48.112;9.282;2023-07-22T02:41:29;94732.38;;;13.68;81.10
9855;BME280;4966;48.112;9.282;2023-07-22T02:43:54;94737.97;;;13.56;81.46
9855;BME280;4966;48.112;9.282;2023-07-22T02:46:19;94737.75;;;13.65;80.94
9855;BME280;4966;48.112;9.282;2023-07-22T02:48:45;94726.91;;;13.68;80.03
9855;BME280;4966;48.112;9.282;2023-07-22T02:51:10;94724.34;;;13.59;80.44
9855;BME280;4966;48.112;9.282;2023-07-22T02:53:36;94717.53;;;13.69;79.00
9855;BME280;4966;48.112;9.282;2023-07-22T02:56:07;94715.47;;;13.63;79.12
9855;BME280;4966;48.112;9.282;2023-07-22T02:58:33;94716.53;;;13.58;78.68
9855;BME280;4966;48.112;9.282;2023-07-22T03:00:59;94713.25;;;13.52;78.73
9855;BME280;4966;48.112;9.282;2023-07-22T03:03:24;94721.84;;;13.35;79.15
9855;BME280;4966;48.112;9.282;2023-07-22T03:05:50;94724.22;;;13.36;79.10
9855;BME280;4966;48.112;9.282;2023-07-22T03:08:17;94723.41;;;13.36;79.27
9855;BME280;4966;48.112;9.282;2023-07-22T03:10:43;94730.13;;;13.23;78.83
9855;BME280;4966;48.112;9.282;2023-07-22T03:13:13;94731.81;;;13.27;79.45
9855;BME280;4966;48.112;9.282;2023-07-22T03:15:38;94723.88;;;13.22;79.85
9855;BME280;4966;48.112;9.282;2023-07-22T03:18:04;94725.72;;;12.86;81.45
9855;BME280;4966;48.112;9.282;2023-07-22T03:20:38;94724.19;;;12.73;81.60
9855;BME280;4966;48.112;9.282;2023-07-22T03:23:04;94727.53;;;12.82;81.50
9855;BME280;4966;48.112;9.282;2023-07-22T03:25:30;94724.03;;;12.82;81.10
9855;BME280;4966;48.112;9.282;2023-07-22T03:27:55;94739.19;;;12.79;81.34
9855;BME280;4966;48.112;9.282;2023-07-22T03:30:22;94730.38;;;12.86;80.36
9855;BME280;4966;48.112;9.282;2023-07-22T03:32:47;94723.84;;;12.90;80.08
9855;BME280;4966;48.112;9.282;2023-07-22T03:35:14;94727.22;;;12.84;80.35
9855;BME280;4966;48.112;9.282;2023-07-22T03:37:40;94720.94;;;12.83;80.01
9855;BME280;4966;48.112;9.282;2023-07-22T03:40:06;94722.63;;;12.72;79.93
9855;BME280;4966;48.112;9.282;2023-07-22T03:42:53;94728.13;;;12.60;79.96
9855;BME280;4966;48.112;9.282;2023-07-22T03:45:20;94722.78;;;12.35;81.22
9855;BME280;4966;48.112;9.282;2023-07-22T03:47:49;94719.19;;;12.31;81.54
9855;BME280;4966;48.112;9.282;2023-07-22T03:50:15;94719.56;;;12.45;81.44
9855;BME280;4966;48.112;9.282;2023-07-22T03:52:40;94715.53;;;12.55;80.43
9855;BME280;4966;48.112;9.282;2023-07-22T03:55:07;94722.13;;;12.54;80.46
9855;BME280;4966;48.112;9.282;2023-07-22T03:57:32;94721.69;;;12.52;79.96
9855;BME280;4966;48.112;9.282;2023-07-22T03:59:57;94715.16;;;12.41;80.42
9855;BME280;4966;48.112;9.282;2023-07-22T04:02:24;94720.88;;;12.07;82.18
9855;BME280;4966;48.112;9.282;2023-07-22T04:04:53;94714.13;;;12.17;81.94
9855;BME280;4966;48.112;9.282;2023-07-22T04:07:19;94725.53;;;12.07;83.10
9855;BME280;4966;48.112;9.282;2023-07-22T04:09:44;94724.03;;;12.09;82.64
9855;BME280;4966;48.112;9.282;2023-07-22T04:12:12;94722.25;;;12.29;81.22
9855;BME280;4966;48.112;9.282;2023-07-22T04:14:38;94711.72;;;12.16;81.96
9855;BME280;4966;48.112;9.282;2023-07-22T04:17:04;94715.22;;;12.28;81.73
9855;BME280;4966;48.112;9.282;2023-07-22T04:19:30;94724.84;;;12.38;80.63
9855;BME280;4966;48.112;9.282;2023-07-22T04:21:55;94721.47;;;12.29;81.16
9855;BME280;4966;48.112;9.282;2023-07-22T04:24:20;94711.41;;;12.33;81.54
9855;BME280;4966;48.112;9.282;2023-07-22T04:26:46;94722.78;;;12.35;81.85
9855;BME280;4966;48.112;9.282;2023-07-22T04:29:11;94718.28;;;12.55;80.17
9855;BME280;4966;48.112;9.282;2023-07-22T04:31:38;94726.78;;;12.53;79.62
9855;BME280;4966;48.112;9.282;2023-07-22T04:34:03;94724.06;;;12.53;80.16
9855;BME280;4966;48.112;9.282;2023-07-22T04:36:30;94717.84;;;12.69;79.35
9855;BME280;4966;48.112;9.282;2023-07-22T04:38:55;94719.69;;;12.65;79.99
9855;BME280;4966;48.112;9.282;2023-07-22T04:41:21;94718.66;;;12.69;80.29
9855;BME280;4966;48.112;9.282;2023-07-22T04:43:46;94727.81;;;12.77;79.25
9855;BME280;4966;48.112;9.282;2023-07-22T04:46:12;94732.03;;;12.74;79.90
9855;BME280;4966;48.112;9.282;2023-07-22T04:48:38;94736.78;;;12.33;82.33
9855;BME280;4966;48.112;9.282;2023-07-22T04:51:03;94743.94;;;12.38;82.86
9855;BME280;4966;48.112;9.282;2023-07-22T04:53:28;94750.16;;;12.67;81.80
9855;BME280;4966;48.112;9.282;2023-07-22T04:55:53;94745.31;;;12.60;82.50
9855;BME280;4966;48.112;9.282;2023-07-22T04:58:20;94754.31;;;12.92;81.62
9855;BME280;4966;48.112;9.282;2023-07-22T05:00:45;94743.25;;;13.17;81.42
9855;BME280;4966;48.112;9.282;2023-07-22T05:03:11;94737.25;;;13.43;80.01
9855;BME280;4966;48.112;9.282;2023-07-22T05:05:36;94738.28;;;13.70;78.27
9855;BME280;4966;48.112;9.282;2023-07-22T05:08:01;94742.25;;;13.73;77.25
9855;BME280;4966;48.112;9.282;2023-07-22T05:10:27;94735.09;;;14.03;76.18
9855;BME280;4966;48.112;9.282;2023-07-22T05:12:54;94738.19;;;14.21;75.77
9855;BME280;4966;48.112;9.282;2023-07-22T05:15:19;94739.28;;;14.36;75.06
9855;BME280;4966;48.112;9.282;2023-07-22T05:17:45;94747.72;;;14.47;75.02
9855;BME280;4966;48.112;9.282;2023-07-22T05:20:12;94747.88;;;14.54;74.63
9855;BME280;4966;48.112;9.282;2023-07-22T05:22:39;94748.56;;;14.51;75.65
9855;BME280;4966;48.112;9.282;2023-07-22T05:25:05;94745.56;;;14.56;75.55
9855;BME280;4966;48.112;9.282;2023-07-22T05:27:31;94751.03;;;14.76;75.64
9855;BME280;4966;48.112;9.282;2023-07-22T05:29:56;94753.09;;;14.82;73.94
9855;BME280;4966;48.112;9.282;2023-07-22T05:32:21;94759.94;;;14.92;73.51
9855;BME280;4966;48.112;9.282;2023-07-22T05:34:47;94747.91;;;14.97;75.05
9855;BME280;4966;48.112;9.282;2023-07-22T05:37:12;94755.94;;;15.09;74.79
9855;BME280;4966;48.112;9.282;2023-07-22T05:39:37;94760.75;;;15.16;74.12
9855;BME280;4966;48.112;9.282;2023-07-22T05:42:03;94768.09;;;15.35;74.28
9855;BME280;4966;48.112;9.282;2023-07-22T05:44:29;94769.63;;;15.55;73.21
9855;BME280;4966;48.112;9.282;2023-07-22T05:46:54;94769.19;;;15.76;73.66
9855;BME280;4966;48.112;9.282;2023-07-22T05:49:20;94770.72;;;16.00;73.22
9855;BME280;4966;48.112;9.282;2023-07-22T05:51:45;94767.38;;;16.14;73.67
9855;BME280;4966;48.112;9.282;2023-07-22T05:54:11;94771.56;;;15.31;76.60
9855;BME280;4966;48.112;9.282;2023-07-22T05:56:36;94776.03;;;15.89;74.63
9855;BME280;4966;48.112;9.282;2023-07-22T05:59:01;94772.69;;;16.00;73.98
9855;BME280;4966;48.112;9.282;2023-07-22T06:01:27;94777.47;;;15.80;73.08
9855;BME280;4966;48.112;9.282;2023-07-22T06:03:52;94784.97;;;16.09;72.08
9855;BME280;4966;48.112;9.282;2023-07-22T06:06:18;94784.06;;;16.28;71.89
9855;BME280;4966;48.112;9.282;2023-07-22T06:08:43;94780.63;;;16.08;73.77
9855;BME280;4966;48.112;9.282;2023-07-22T06:11:09;94777.63;;;16.47;73.57
9855;BME280;4966;48.112;9.282;2023-07-22T06:13:34;94776.75;;;16.73;71.50
9855;BME280;4966;48.112;9.282;2023-07-22T06:16:00;94778.63;;;16.66;72.19
9855;BME280;4966;48.112;9.282;2023-07-22T06:18:25;94779.31;;;16.89;70.92
9855;BME280;4966;48.112;9.282;2023-07-22T06:20:50;94789.59;;;16.96;71.68
9855;BME280;4966;48.112;9.282;2023-07-22T06:23:16;94792.16;;;17.15;69.33
9855;BME280;4966;48.112;9.282;2023-07-22T06:25:41;94795.41;;;17.28;69.21
9855;BME280;4966;48.112;9.282;2023-07-22T06:28:08;94792.06;;;17.49;69.13
9855;BME280;4966;48.112;9.282;2023-07-22T06:30:33;94791.72;;;17.54;68.86
9855;BME280;4966;48.112;9.282;2023-07-22T06:32:59;94791.06;;;17.68;67.54
9855;BME280;4966;48.112;9.282;2023-07-22T06:35:24;94784.97;;;17.44;70.07
9855;BME280;4966;48.112;9.282;2023-07-22T06:37:49;94796.09;;;17.59;68.97
9855;BME280;4966;48.112;9.282;2023-07-22T06:40:15;94798.66;;;17.82;69.14
9855;BME280;4966;48.112;9.282;2023-07-22T06:42:40;94797.22;;;18.02;68.04
9855;BME280;4966;48.112;9.282;2023-07-22T06:45:06;94799.66;;;18.15;67.88
9855;BME280;4966;48.112;9.282;2023-07-22T06:47:31;94799.00;;;18.32;65.97
9855;BME280;4966;48.112;9.282;2023-07-22T06:49:57;94800.28;;;18.53;65.60
9855;BME280;4966;48.112;9.282;2023-07-22T06:52:22;94800.75;;;18.65;65.94
9855;BME280;4966;48.112;9.282;2023-07-22T06:54:48;94797.63;;;18.70;64.89
9855;BME280;4966;48.112;9.282;2023-07-22T06:57:13;94795.28;;;18.73;64.33
9855;BME280;4966;48.112;9.282;2023-07-22T06:59:39;94807.13;;;18.77;66.14
9855;BME280;4966;48.112;9.282;2023-07-22T07:02:04;94802.88;;;19.01;63.41
9855;BME280;4966;48.112;9.282;2023-07-22T07:04:30;94802.03;;;18.86;62.66
9855;BME280;4966;48.112;9.282;2023-07-22T07:06:55;94796.16;;;18.95;62.25
9855;BME280;4966;48.112;9.282;2023-07-22T07:09:21;94797.78;;;19.17;63.18
9855;BME280;4966;48.112;9.282;2023-07-22T07:11:46;94794.63;;;19.04;63.48
9855;BME280;4966;48.112;9.282;2023-07-22T07:14:12;94804.91;;;19.22;63.05
9855;BME280;4966;48.112;9.282;2023-07-22T07:16:38;94796.66;;;19.32;60.65
9855;BME280;4966;48.112;9.282;2023-07-22T07:19:03;94802.97;;;19.44;61.85
9855;BME280;4966;48.112;9.282;2023-07-22T07:21:29;94800.66;;;19.74;58.58
9855;BME280;4966;48.112;9.282;2023-07-22T07:23:54;94795.41;;;19.05;63.03
9855;BME280;4966;48.112;9.282;2023-07-22T07:26:20;94802.19;;;19.58;62.49
9855;BME280;4966;48.112;9.282;2023-07-22T07:28:47;94800.25;;;19.94;61.66
9855;BME280;4966;48.112;9.282;2023-07-22T07:31:12;94799.50;;;20.04;60.48
9855;BME280;4966;48.112;9.282;2023-07-22T07:33:38;94797.09;;;20.21;60.74
9855;BME280;4966;48.112;9.282;2023-07-22T07:36:04;94795.53;;;20.05;62.46
9855;BME280;4966;48.112;9.282;2023-07-22T07:38:29;94792.38;;;20.10;60.24
9855;BME280;4966;48.112;9.282;2023-07-22T07:41:05;94803.41;;;20.25;60.32
9855;BME280;4966;48.112;9.282;2023-07-22T07:43:34;94805.38;;;20.24;63.67
9855;BME280;4966;48.112;9.282;2023-07-22T07:46:13;94805.38;;;19.85;62.01
9855;BME280;4966;48.112;9.282;2023-07-22T07:48:38;94806.09;;;20.68;60.99
9855;BME280;4966;48.112;9.282;2023-07-22T07:51:04;94800.22;;;20.40;59.23
9855;BME280;4966;48.112;9.282;2023-07-22T07:53:29;94806.91;;;20.50;60.40
9855;BME280;4966;48.112;9.282;2023-07-22T07:55:54;94797.91;;;19.96;58.44
9855;BME280;4966;48.112;9.282;2023-07-22T07:58:20;94793.56;;;20.16;56.92
9855;BME280;4966;48.112;9.282;2023-07-22T08:00:45;94789.91;;;20.52;55.39
9855;BME280;4966;48.112;9.282;2023-07-22T08:03:10;94785.22;;;20.45;56.30
9855;BME280;4966;48.112;9.282;2023-07-22T08:05:36;94795.84;;;20.47;58.09
9855;BME280;4966;48.112;9.282;2023-07-22T08:08:01;94795.84;;;20.47;53.04
9855;BME280;4966;48.112;9.282;2023-07-22T08:10:26;94795.84;;;20.47;53.54
9855;BME280;4966;48.112;9.282;2023-07-22T08:12:51;94791.13;;;20.44;54.17
9855;BME280;4966;48.112;9.282;2023-07-22T08:15:17;94793.44;;;20.70;52.66
9855;BME280;4966;48.112;9.282;2023-07-22T08:17:42;94787.94;;;20.52;54.54
9855;BME280;4966;48.112;9.282;2023-07-22T08:20:08;94783.91;;;20.82;53.29
9855;BME280;4966;48.112;9.282;2023-07-22T08:22:33;94789.94;;;20.55;51.40
9855;BME280;4966;48.112;9.282;2023-07-22T08:24:58;94793.31;;;21.02;50.29
9855;BME280;4966;48.112;9.282;2023-07-22T08:27:24;94799.41;;;20.62;50.55
9855;BME280;4966;48.112;9.282;2023-07-22T08:29:49;94796.47;;;21.01;51.02
9855;BME280;4966;48.112;9.282;2023-07-22T08:32:14;94787.06;;;20.84;51.41
9855;BME280;4966;48.112;9.282;2023-07-22T08:34:40;94788.41;;;21.28;49.83
9855;BME280;4966;48.112;9.282;2023-07-22T08:37:05;94788.25;;;21.57;45.54
9855;BME280;4966;48.112;9.282;2023-07-22T08:39:31;94778.91;;;21.33;47.69
9855;BME280;4966;48.112;9.282;2023-07-22T08:41:58;94782.59;;;22.27;49.21
9855;BME280;4966;48.112;9.282;2023-07-22T08:44:28;94781.44;;;22.24;49.13
9855;BME280;4966;48.112;9.282;2023-07-22T08:46:56;94782.88;;;22.36;45.95
9855;BME280;4966;48.112;9.282;2023-07-22T08:49:22;94775.84;;;22.62;44.06
9855;BME280;4966;48.112;9.282;2023-07-22T08:51:48;94774.38;;;22.54;47.43
9855;BME280;4966;48.112;9.282;2023-07-22T08:54:14;94772.75;;;22.57;45.85
9855;BME280;4966;48.112;9.282;2023-07-22T08:56:41;94771.59;;;22.54;47.63
9855;BME280;4966;48.112;9.282;2023-07-22T08:59:07;94774.97;;;22.35;46.48
9855;BME280;4966;48.112;9.282;2023-07-22T09:01:33;94776.06;;;22.03;48.92
9855;BME280;4966;48.112;9.282;2023-07-22T09:03:59;94782.06;;;22.73;46.14
9855;BME280;4966;48.112;9.282;2023-07-22T09:06:25;94779.84;;;22.61;46.20
9855;BME280;4966;48.112;9.282;2023-07-22T09:08:50;94767.75;;;23.13;44.43
9855;BME280;4966;48.112;9.282;2023-07-22T09:11:18;94777.44;;;23.55;45.10
9855;BME280;4966;48.112;9.282;2023-07-22T09:13:44;94770.22;;;23.34;44.80
9855;BME280;4966;48.112;9.282;2023-07-22T09:16:11;94778.28;;;23.25;45.94
9855;BME280;4966;48.112;9.282;2023-07-22T09:18:37;94772.16;;;22.38;47.22
9855;BME280;4966;48.112;9.282;2023-07-22T09:21:03;94772.97;;;22.39;45.96
9855;BME280;4966;48.112;9.282;2023-07-22T09:23:34;94776.13;;;22.37;46.02
9855;BME280;4966;48.112;9.282;2023-07-22T09:26:13;94765.03;;;21.96;46.00
9855;BME280;4966;48.112;9.282;2023-07-22T09:28:55;94771.56;;;22.16;45.65
9855;BME280;4966;48.112;9.282;2023-07-22T09:31:22;94777.09;;;22.16;45.76
9855;BME280;4966;48.112;9.282;2023-07-22T09:33:48;94777.03;;;22.99;44.60
9855;BME280;4966;48.112;9.282;2023-07-22T09:36:14;94772.56;;;23.09;43.25
9855;BME280;4966;48.112;9.282;2023-07-22T09:38:39;94775.50;;;23.25;45.27
9855;BME280;4966;48.112;9.282;2023-07-22T09:41:05;94769.34;;;23.68;43.96
9855;BME280;4966;48.112;9.282;2023-07-22T09:43:30;94766.75;;;23.27;43.72
9855;BME280;4966;48.112;9.282;2023-07-22T09:46:05;94767.34;;;23.69;42.84
9855;BME280;4966;48.112;9.282;2023-07-22T09:48:39;94766.81;;;24.01;45.01
9855;BME280;4966;48.112;9.282;2023-07-22T09:51:05;94770.47;;;24.22;43.44
9855;BME280;4966;48.112;9.282;2023-07-22T09:53:31;94767.97;;;24.27;42.63
9855;BME280;4966;48.112;9.282;2023-07-22T09:56:03;94761.66;;;23.22;42.53
9855;BME280;4966;48.112;9.282;2023-07-22T09:58:30;94762.03;;;24.25;43.87
9855;BME280;4966;48.112;9.282;2023-07-22T10:00:56;94757.56;;;24.55;40.10
9855;BME280;4966;48.112;9.282;2023-07-22T10:03:23;94757.44;;;24.38;40.80
9855;BME280;4966;48.112;9.282;2023-07-22T10:05:53;94764.97;;;23.67;39.23
9855;BME280;4966;48.112;9.282;2023-07-22T10:08:20;94768.94;;;23.39;42.04
9855;BME280;4966;48.112;9.282;2023-07-22T10:10:48;94766.47;;;23.72;38.05
9855;BME280;4966;48.112;9.282;2023-07-22T10:13:16;94757.03;;;24.40;37.03
9855;BME280;4966;48.112;9.282;2023-07-22T10:15:42;94756.31;;;24.12;38.27
9855;BME280;4966;48.112;9.282;2023-07-22T10:18:09;94756.66;;;24.38;37.70
9855;BME280;4966;48.112;9.282;2023-07-22T10:20:36;94759.09;;;24.12;38.52
9855;BME280;4966;48.112;9.282;2023-07-22T10:23:02;94756.47;;;24.49;41.71
9855;BME280;4966;48.112;9.282;2023-07-22T10:25:29;94758.72;;;24.97;38.50
9855;BME280;4966;48.112;9.282;2023-07-22T10:27:55;94751.41;;;24.63;38.49
9855;BME280;4966;48.112;9.282;2023-07-22T10:30:20;94749.88;;;24.62;39.93
9855;BME280;4966;48.112;9.282;2023-07-22T10:32:51;94754.88;;;24.71;40.98
9855;BME280;4966;48.112;9.282;2023-07-22T10:37:54;94750.34;;;25.17;39.60
9855;BME280;4966;48.112;9.282;2023-07-22T10:40:26;94741.28;;;24.73;39.71
9855;BME280;4966;48.112;9.282;2023-07-22T10:42:56;94753.06;;;25.21;41.24
9855;BME280;4966;48.112;9.282;2023-07-22T10:45:27;94752.75;;;25.15;39.91
9855;BME280;4966;48.112;9.282;2023-07-22T10:48:13;94741.75;;;24.72;40.85
9855;BME280;4966;48.112;9.282;2023-07-22T10:50:52;94736.00;;;25.88;40.60
9855;BME280;4966;48.112;9.282;2023-07-22T11:12:13;94717.19;;;26.08;36.43
9855;BME280;4966;48.112;9.282;2023-07-22T11:15:03;94710.81;;;26.24;35.79
9855;BME280;4966;48.112;9.282;2023-07-22T11:17:31;94709.94;;;28.14;33.67
9855;BME280;4966;48.112;9.282;2023-07-22T11:19:59;94696.13;;;29.52;28.56
9855;BME280;4966;48.112;9.282;2023-07-22T11:22:25;94684.03;;;30.78;27.86
9855;BME280;4966;48.112;9.282;2023-07-22T11:24:51;94682.53;;;29.72;29.48
9855;BME280;4966;48.112;9.282;2023-07-22T11:27:16;94693.28;;;29.42;28.88
9855;BME280;4966;48.112;9.282;2023-07-22T11:29:41;94695.97;;;28.01;29.85
9855;BME280;4966;48.112;9.282;2023-07-22T11:32:15;94695.53;;;27.00;32.32
9855;BME280;4966;48.112;9.282;2023-07-22T11:34:42;94693.81;;;26.19;32.83
9855;BME280;4966;48.112;9.282;2023-07-22T11:37:10;94684.97;;;25.58;35.37
9855;BME280;4966;48.112;9.282;2023-07-22T11:39:35;94685.69;;;25.62;35.24
9855;BME280;4966;48.112;9.282;2023-07-22T11:42:03;94682.31;;;25.18;36.28
9855;BME280;4966;48.112;9.282;2023-07-22T11:44:29;94680.66;;;24.84;35.59
9855;BME280;4966;48.112;9.282;2023-07-22T11:47:05;94672.16;;;25.28;36.17
9855;BME280;4966;48.112;9.282;2023-07-22T11:49:37;94681.00;;;24.87;37.51
9855;BME280;4966;48.112;9.282;2023-07-22T11:52:05;94677.09;;;24.84;36.13
9855;BME280;4966;48.112;9.282;2023-07-22T11:54:33;94674.72;;;24.82;36.91
9855;BME280;4966;48.112;9.282;2023-07-22T11:57:18;94676.06;;;24.94;36.62
9855;BME280;4966;48.112;9.282;2023-07-22T11:59:50;94671.22;;;24.98;37.35
9855;BME280;4966;48.112;9.282;2023-07-22T12:02:17;94665.38;;;25.29;37.29
9855;BME280;4966;48.112;9.282;2023-07-22T12:04:51;94671.75;;;25.46;36.20
9855;BME280;4966;48.112;9.282;2023-07-22T12:07:26;94657.84;;;26.37;36.14
9855;BME280;4966;48.112;9.282;2023-07-22T12:09:55;94666.09;;;28.68;34.14
9855;BME280;4966;48.112;9.282;2023-07-22T12:12:21;94652.63;;;31.07;27.69
9855;BME280;4966;48.112;9.282;2023-07-22T12:14:46;94651.84;;;31.83;26.41
9855;BME280;4966;48.112;9.282;2023-07-22T12:17:11;94658.16;;;30.28;27.24
9855;BME280;4966;48.112;9.282;2023-07-22T12:19:37;94659.28;;;28.69;30.33
9855;BME280;4966;48.112;9.282;2023-07-22T12:22:02;94645.59;;;29.74;28.95
9855;BME280;4966;48.112;9.282;2023-07-22T12:24:28;94655.41;;;28.75;28.31
9855;BME280;4966;48.112;9.282;2023-07-22T12:26:54;94643.03;;;29.48;29.16
9855;BME280;4966;48.112;9.282;2023-07-22T12:29:20;94652.06;;;30.20;27.82
9855;BME280;4966;48.112;9.282;2023-07-22T12:31:45;94634.88;;;30.73;27.96
9855;BME280;4966;48.112;9.282;2023-07-22T12:34:10;94634.34;;;32.51;24.83
9855;BME280;4966;48.112;9.282;2023-07-22T12:36:36;94639.66;;;34.23;21.55
9855;BME280;4966;48.112;9.282;2023-07-22T12:39:01;94635.34;;;34.28;24.11
9855;BME280;4966;48.112;9.282;2023-07-22T12:41:27;94630.19;;;34.93;20.34
9855;BME280;4966;48.112;9.282;2023-07-22T12:43:52;94624.78;;;36.45;20.42
9855;BME280;4966;48.112;9.282;2023-07-22T12:46:18;94631.38;;;36.19;20.02
9855;BME280;4966;48.112;9.282;2023-07-22T12:48:43;94631.13;;;37.06;18.02
9855;BME280;4966;48.112;9.282;2023-07-22T12:51:08;94616.81;;;34.94;20.34
9855;BME280;4966;48.112;9.282;2023-07-22T12:53:35;94624.84;;;32.78;23.30
9855;BME280;4966;48.112;9.282;2023-07-22T12:56:01;94631.28;;;31.43;22.11
9855;BME280;4966;48.112;9.282;2023-07-22T12:58:28;94618.53;;;31.24;22.49
9855;BME280;4966;48.112;9.282;2023-07-22T13:00:54;94633.56;;;29.14;25.28
9855;BME280;4966;48.112;9.282;2023-07-22T13:03:20;94627.53;;;28.94;25.42
9855;BME280;4966;48.112;9.282;2023-07-22T13:05:45;94630.81;;;27.78;29.04
9855;BME280;4966;48.112;9.282;2023-07-22T13:08:10;94628.69;;;27.35;28.32
9855;BME280;4966;48.112;9.282;2023-07-22T13:10:36;94619.34;;;30.26;25.17
9855;BME280;4966;48.112;9.282;2023-07-22T13:13:05;94609.88;;;31.36;23.68
9855;BME280;4966;48.112;9.282;2023-07-22T13:15:31;94624.28;;;32.89;21.06
9855;BME280;4966;48.112;9.282;2023-07-22T13:17:56;94618.13;;;34.26;19.84
9855;BME280;4966;48.112;9.282;2023-07-22T13:20:21;94607.97;;;34.81;19.75
9855;BME280;4966;48.112;9.282;2023-07-22T13:22:47;94609.22;;;33.21;20.48
9855;BME280;4966;48.112;9.282;2023-07-22T13:25:13;94606.28;;;33.01;21.20
9855;BME280;4966;48.112;9.282;2023-07-22T13:27:38;94615.34;;;32.21;21.59
9855;BME280;4966;48.112;9.282;2023-07-22T13:30:06;94609.88;;;33.01;21.16
9855;BME280;4966;48.112;9.282;2023-07-22T13:32:32;94605.44;;;32.95;19.44
9855;BME280;4966;48.112;9.282;2023-07-22T13:34:57;94601.91;;;32.85;18.48
9855;BME280;4966;48.112;9.282;2023-07-22T13:37:23;94604.53;;;33.68;18.74
9855;BME280;4966;48.112;9.282;2023-07-22T13:39:48;94596.97;;;34.62;18.23